sensor_id;sensor_type;location;lat;lon;timestamp;P1;durP1;ratioP1;P2;durP2;ratioP2
19971;SDS011;10147;16.402;102.848;2024-03-02T00:01:18;15.43;;;13.65;;
19971;SDS011;10147;16.402;102.848;2024-03-02T00:03:48;16.95;;;13.32;;
19971;SDS011;10147;16.402;102.848;2024-03-02T00:06:20;18.27;;;13.52;;
19971;SDS011;10147;16.402;102.848;2024-03-02T00:08:51;15.23;;;13.38;;
19971;SDS011;10147;16.402;102.848;2024-03-02T00:11:25;16.75;;;13.15;;
19971;SDS011;10147;16.402;102.848;2024-03-02T00:13:56;14.30;;;12.80;;
19971;SDS011;10147;16.402;102.848;2024-03-02T00:16:29;18.20;;;16.38;;
19971;SDS011;10147;16.402;102.848;2024-03-02T00:19:03;25.15;;;22.95;;
19971;SDS011;10147;16.402;102.848;2024-03-02T00:21:36;23.73;;;21.17;;
19971;SDS011;10147;16.402;102.848;2024-03-02T00:24:07;16.30;;;12.80;;
19971;SDS011;10147;16.402;102.848;2024-03-02T00:26:50;20.13;;;12.75;;
19971;SDS011;10147;16.402;102.848;2024-03-02T00:29:20;14.98;;;13.07;;
19971;SDS011;10147;16.402;102.848;2024-03-02T00:31:50;16.60;;;13.20;;
19971;SDS011;10147;16.402;102.848;2024-03-02T00:34:20;16.05;;;12.52;;
19971;SDS011;10147;16.402;102.848;2024-03-02T00:36:51;18.02;;;14.23;;
19971;SDS011;10147;16.402;102.848;2024-03-02T00:39:22;15.82;;;13.48;;
19971;SDS011;10147;16.402;102.848;2024-03-02T00:41:52;19.83;;;14.55;;
19971;SDS011;10147;16.402;102.848;2024-03-02T00:44:23;15.77;;;13.20;;
19971;SDS011;10147;16.402;102.848;2024-03-02T00:46:55;14.40;;;12.57;;
19971;SDS011;10147;16.402;102.848;2024-03-02T00:49:25;18.58;;;12.80;;
19971;SDS011;10147;16.402;102.848;2024-03-02T00:51:57;16.13;;;13.23;;
19971;SDS011;10147;16.402;102.848;2024-03-02T00:54:28;15.02;;;12.70;;
19971;SDS011;10147;16.402;102.848;2024-03-02T00:56:59;14.52;;;12.20;;
19971;SDS011;10147;16.402;102.848;2024-03-02T00:59:30;19.75;;;14.95;;
19971;SDS011;10147;16.402;102.848;2024-03-02T01:02:00;17.48;;;15.27;;
19971;SDS011;10147;16.402;102.848;2024-03-02T01:04:30;21.70;;;15.63;;
19971;SDS011;10147;16.402;102.848;2024-03-02T01:07:00;18.15;;;16.10;;
19971;SDS011;10147;16.402;102.848;2024-03-02T01:09:31;17.65;;;15.82;;
19971;SDS011;10147;16.402;102.848;2024-03-02T01:12:01;18.02;;;16.13;;
19971;SDS011;10147;16.402;102.848;2024-03-02T01:14:31;30.65;;;27.52;;
19971;SDS011;10147;16.402;102.848;2024-03-02T01:17:01;21.42;;;17.35;;
19971;SDS011;10147;16.402;102.848;2024-03-02T01:19:33;17.35;;;13.90;;
19971;SDS011;10147;16.402;102.848;2024-03-02T01:22:03;18.63;;;13.65;;
19971;SDS011;10147;16.402;102.848;2024-03-02T01:24:33;23.90;;;19.48;;
19971;SDS011;10147;16.402;102.848;2024-03-02T01:27:03;31.42;;;20.23;;
19971;SDS011;10147;16.402;102.848;2024-03-02T01:29:33;19.20;;;15.27;;
19971;SDS011;10147;16.402;102.848;2024-03-02T01:32:03;35.50;;;26.65;;
19971;SDS011;10147;16.402;102.848;2024-03-02T01:34:34;17.33;;;15.43;;
19971;SDS011;10147;16.402;102.848;2024-03-02T01:47:38;20.58;;;16.58;;
19971;SDS011;10147;16.402;102.848;2024-03-02T01:50:10;18.05;;;15.20;;
19971;SDS011;10147;16.402;102.848;2024-03-02T01:52:42;16.08;;;14.05;;
19971;SDS011;10147;16.402;102.848;2024-03-02T01:55:13;15.52;;;13.93;;
19971;SDS011;10147;16.402;102.848;2024-03-02T01:57:43;25.13;;;15.32;;
19971;SDS011;10147;16.402;102.848;2024-03-02T02:00:13;19.13;;;17.13;;
19971;SDS011;10147;16.402;102.848;2024-03-02T02:02:44;17.77;;;15.75;;
19971;SDS011;10147;16.402;102.848;2024-03-02T02:05:15;20.33;;;15.65;;
19971;SDS011;10147;16.402;102.848;2024-03-02T02:07:45;20.73;;;15.32;;
19971;SDS011;10147;16.402;102.848;2024-03-02T02:10:17;20.13;;;14.45;;
19971;SDS011;10147;16.402;102.848;2024-03-02T02:12:47;15.98;;;12.95;;
19971;SDS011;10147;16.402;102.848;2024-03-02T02:15:24;14.35;;;12.50;;
19971;SDS011;10147;16.402;102.848;2024-03-02T02:17:56;47.33;;;14.85;;
19971;SDS011;10147;16.402;102.848;2024-03-02T02:20:27;17.85;;;11.77;;
19971;SDS011;10147;16.402;102.848;2024-03-02T02:22:58;24.73;;;22.48;;
19971;SDS011;10147;16.402;102.848;2024-03-02T02:25:32;16.92;;;12.90;;
19971;SDS011;10147;16.402;102.848;2024-03-02T02:28:02;17.23;;;13.90;;
19971;SDS011;10147;16.402;102.848;2024-03-02T02:30:33;17.35;;;13.25;;
19971;SDS011;10147;16.402;102.848;2024-03-02T02:33:03;15.15;;;11.75;;
19971;SDS011;10147;16.402;102.848;2024-03-02T02:35:34;13.52;;;12.07;;
19971;SDS011;10147;16.402;102.848;2024-03-02T02:38:04;17.52;;;12.23;;
19971;SDS011;10147;16.402;102.848;2024-03-02T02:40:35;16.10;;;14.40;;
19971;SDS011;10147;16.402;102.848;2024-03-02T02:43:05;22.02;;;19.83;;
19971;SDS011;10147;16.402;102.848;2024-03-02T02:45:35;16.05;;;12.70;;
19971;SDS011;10147;16.402;102.848;2024-03-02T02:48:06;15.70;;;13.10;;
19971;SDS011;10147;16.402;102.848;2024-03-02T02:50:36;14.35;;;12.90;;
19971;SDS011;10147;16.402;102.848;2024-03-02T02:53:06;16.73;;;14.80;;
19971;SDS011;10147;16.402;102.848;2024-03-02T02:55:40;16.95;;;15.02;;
19971;SDS011;10147;16.402;102.848;2024-03-02T02:58:12;16.52;;;14.82;;
19971;SDS011;10147;16.402;102.848;2024-03-02T03:00:43;17.45;;;14.60;;
19971;SDS011;10147;16.402;102.848;2024-03-02T03:03:13;17.67;;;14.00;;
19971;SDS011;10147;16.402;102.848;2024-03-02T03:05:43;14.55;;;13.05;;
19971;SDS011;10147;16.402;102.848;2024-03-02T03:33:24;14.57;;;11.77;;
19971;SDS011;10147;16.402;102.848;2024-03-02T03:35:56;20.00;;;18.17;;
19971;SDS011;10147;16.402;102.848;2024-03-02T03:38:26;21.15;;;19.15;;
19971;SDS011;10147;16.402;102.848;2024-03-02T03:40:56;16.90;;;14.27;;
19971;SDS011;10147;16.402;102.848;2024-03-02T03:43:25;15.88;;;12.13;;
19971;SDS011;10147;16.402;102.848;2024-03-02T03:45:55;19.17;;;15.82;;
19971;SDS011;10147;16.402;102.848;2024-03-02T03:48:25;16.95;;;15.18;;
19971;SDS011;10147;16.402;102.848;2024-03-02T03:50:59;16.98;;;15.23;;
19971;SDS011;10147;16.402;102.848;2024-03-02T03:53:29;18.25;;;16.55;;
19971;SDS011;10147;16.402;102.848;2024-03-02T03:56:00;14.77;;;12.18;;
19971;SDS011;10147;16.402;102.848;2024-03-02T03:58:30;16.70;;;11.85;;
19971;SDS011;10147;16.402;102.848;2024-03-02T04:01:00;16.67;;;13.15;;
19971;SDS011;10147;16.402;102.848;2024-03-02T04:03:30;19.65;;;13.27;;
19971;SDS011;10147;16.402;102.848;2024-03-02T04:06:00;16.10;;;14.45;;
19971;SDS011;10147;16.402;102.848;2024-03-02T04:08:31;14.95;;;12.07;;
19971;SDS011;10147;16.402;102.848;2024-03-02T04:11:01;18.38;;;12.77;;
19971;SDS011;10147;16.402;102.848;2024-03-02T04:13:31;16.83;;;12.07;;
19971;SDS011;10147;16.402;102.848;2024-03-02T04:16:01;14.50;;;11.93;;
19971;SDS011;10147;16.402;102.848;2024-03-02T04:18:32;17.15;;;11.43;;
19971;SDS011;10147;16.402;102.848;2024-03-02T04:21:02;13.65;;;11.27;;
19971;SDS011;10147;16.402;102.848;2024-03-02T04:23:32;16.83;;;12.00;;
19971;SDS011;10147;16.402;102.848;2024-03-02T04:26:02;19.02;;;12.27;;
19971;SDS011;10147;16.402;102.848;2024-03-02T04:28:33;14.35;;;11.43;;
19971;SDS011;10147;16.402;102.848;2024-03-02T04:31:03;25.92;;;23.55;;
19971;SDS011;10147;16.402;102.848;2024-03-02T04:33:33;25.55;;;23.13;;
19971;SDS011;10147;16.402;102.848;2024-03-02T04:36:03;18.88;;;13.23;;
19971;SDS011;10147;16.402;102.848;2024-03-02T04:38:52;15.43;;;11.73;;
19971;SDS011;10147;16.402;102.848;2024-03-02T04:41:22;18.67;;;12.40;;
19971;SDS011;10147;16.402;102.848;2024-03-02T04:43:52;13.93;;;10.55;;
19971;SDS011;10147;16.402;102.848;2024-03-02T04:46:22;12.00;;;10.73;;
19971;SDS011;10147;16.402;102.848;2024-03-02T04:48:53;16.08;;;14.40;;
19971;SDS011;10147;16.402;102.848;2024-03-02T04:51:25;15.90;;;12.95;;
19971;SDS011;10147;16.402;102.848;2024-03-02T04:53:55;16.10;;;12.18;;
19971;SDS011;10147;16.402;102.848;2024-03-02T04:56:27;14.68;;;12.10;;
19971;SDS011;10147;16.402;102.848;2024-03-02T04:59:17;13.70;;;11.07;;
19971;SDS011;10147;16.402;102.848;2024-03-02T05:01:47;16.75;;;12.35;;
19971;SDS011;10147;16.402;102.848;2024-03-02T05:04:18;15.73;;;11.55;;
19971;SDS011;10147;16.402;102.848;2024-03-02T05:06:47;18.20;;;13.05;;
19971;SDS011;10147;16.402;102.848;2024-03-02T05:09:21;14.07;;;11.88;;
19971;SDS011;10147;16.402;102.848;2024-03-02T05:11:51;14.05;;;12.50;;
19971;SDS011;10147;16.402;102.848;2024-03-02T05:14:41;16.40;;;11.75;;
19971;SDS011;10147;16.402;102.848;2024-03-02T05:17:11;14.18;;;12.02;;
19971;SDS011;10147;16.402;102.848;2024-03-02T05:19:41;14.45;;;11.80;;
19971;SDS011;10147;16.402;102.848;2024-03-02T05:22:10;20.58;;;12.18;;
19971;SDS011;10147;16.402;102.848;2024-03-02T05:24:40;15.10;;;12.30;;
19971;SDS011;10147;16.402;102.848;2024-03-02T05:27:10;14.73;;;11.98;;
19971;SDS011;10147;16.402;102.848;2024-03-02T05:29:41;19.35;;;12.43;;
19971;SDS011;10147;16.402;102.848;2024-03-02T05:32:11;15.45;;;13.57;;
19971;SDS011;10147;16.402;102.848;2024-03-02T05:34:41;15.27;;;12.40;;
19971;SDS011;10147;16.402;102.848;2024-03-02T05:37:11;25.63;;;23.27;;
19971;SDS011;10147;16.402;102.848;2024-03-02T05:39:41;16.20;;;12.20;;
19971;SDS011;10147;16.402;102.848;2024-03-02T05:42:13;15.75;;;12.35;;
19971;SDS011;10147;16.402;102.848;2024-03-02T05:44:43;17.70;;;11.38;;
19971;SDS011;10147;16.402;102.848;2024-03-02T05:47:13;16.92;;;12.48;;
19971;SDS011;10147;16.402;102.848;2024-03-02T05:49:43;14.82;;;12.20;;
19971;SDS011;10147;16.402;102.848;2024-03-02T05:52:13;20.45;;;12.65;;
19971;SDS011;10147;16.402;102.848;2024-03-02T05:54:43;14.25;;;12.05;;
19971;SDS011;10147;16.402;102.848;2024-03-02T05:57:15;17.15;;;12.40;;
19971;SDS011;10147;16.402;102.848;2024-03-02T05:59:53;14.57;;;12.05;;
19971;SDS011;10147;16.402;102.848;2024-03-02T06:02:23;15.98;;;12.20;;
19971;SDS011;10147;16.402;102.848;2024-03-02T06:04:54;19.70;;;12.75;;
19971;SDS011;10147;16.402;102.848;2024-03-02T06:07:25;13.65;;;11.45;;
19971;SDS011;10147;16.402;102.848;2024-03-02T06:09:55;22.45;;;19.33;;
19971;SDS011;10147;16.402;102.848;2024-03-02T06:12:25;19.23;;;11.98;;
19971;SDS011;10147;16.402;102.848;2024-03-02T06:14:55;15.63;;;12.10;;
19971;SDS011;10147;16.402;102.848;2024-03-02T06:17:25;16.65;;;14.57;;
19971;SDS011;10147;16.402;102.848;2024-03-02T06:19:55;21.80;;;13.93;;
19971;SDS011;10147;16.402;102.848;2024-03-02T06:22:25;19.35;;;12.25;;
19971;SDS011;10147;16.402;102.848;2024-03-02T06:24:55;17.45;;;12.80;;
19971;SDS011;10147;16.402;102.848;2024-03-02T06:27:25;17.92;;;13.15;;
19971;SDS011;10147;16.402;102.848;2024-03-02T06:29:57;21.90;;;12.98;;
19971;SDS011;10147;16.402;102.848;2024-03-02T06:32:27;21.33;;;14.18;;
19971;SDS011;10147;16.402;102.848;2024-03-02T06:34:57;15.38;;;12.55;;
19971;SDS011;10147;16.402;102.848;2024-03-02T06:37:28;17.08;;;13.00;;
19971;SDS011;10147;16.402;102.848;2024-03-02T06:39:58;20.17;;;13.80;;
19971;SDS011;10147;16.402;102.848;2024-03-02T06:42:28;35.13;;;29.27;;
19971;SDS011;10147;16.402;102.848;2024-03-02T06:45:02;16.70;;;12.95;;
19971;SDS011;10147;16.402;102.848;2024-03-02T06:47:33;18.00;;;13.82;;
19971;SDS011;10147;16.402;102.848;2024-03-02T06:50:03;15.48;;;13.38;;
19971;SDS011;10147;16.402;102.848;2024-03-02T06:52:34;20.65;;;13.55;;
19971;SDS011;10147;16.402;102.848;2024-03-02T06:55:04;22.73;;;14.02;;
19971;SDS011;10147;16.402;102.848;2024-03-02T06:57:37;20.15;;;14.05;;
19971;SDS011;10147;16.402;102.848;2024-03-02T07:00:07;17.52;;;13.95;;
19971;SDS011;10147;16.402;102.848;2024-03-02T07:02:38;23.15;;;14.80;;
19971;SDS011;10147;16.402;102.848;2024-03-02T07:05:12;17.33;;;13.20;;
19971;SDS011;10147;16.402;102.848;2024-03-02T07:07:42;18.17;;;14.15;;
19971;SDS011;10147;16.402;102.848;2024-03-02T07:10:12;16.02;;;13.85;;
19971;SDS011;10147;16.402;102.848;2024-03-02T07:12:42;18.58;;;14.40;;
19971;SDS011;10147;16.402;102.848;2024-03-02T07:15:13;15.82;;;13.82;;
19971;SDS011;10147;16.402;102.848;2024-03-02T07:18:03;16.23;;;14.35;;
19971;SDS011;10147;16.402;102.848;2024-03-02T07:20:33;17.10;;;14.32;;
19971;SDS011;10147;16.402;102.848;2024-03-02T07:23:03;19.20;;;14.40;;
19971;SDS011;10147;16.402;102.848;2024-03-02T07:25:34;18.25;;;14.48;;
19971;SDS011;10147;16.402;102.848;2024-03-02T07:28:07;17.08;;;14.20;;
19971;SDS011;10147;16.402;102.848;2024-03-02T07:30:37;20.15;;;14.50;;
19971;SDS011;10147;16.402;102.848;2024-03-02T07:33:09;19.67;;;14.70;;
19971;SDS011;10147;16.402;102.848;2024-03-02T07:35:39;19.25;;;14.55;;
19971;SDS011;10147;16.402;102.848;2024-03-02T07:38:09;16.85;;;14.18;;
19971;SDS011;10147;16.402;102.848;2024-03-02T07:40:42;21.42;;;14.45;;
19971;SDS011;10147;16.402;102.848;2024-03-02T07:43:12;16.67;;;14.48;;
19971;SDS011;10147;16.402;102.848;2024-03-02T07:45:42;20.83;;;14.63;;
19971;SDS011;10147;16.402;102.848;2024-03-02T07:48:12;24.65;;;13.77;;
19971;SDS011;10147;16.402;102.848;2024-03-02T07:50:43;18.85;;;14.70;;
19971;SDS011;10147;16.402;102.848;2024-03-02T07:53:14;20.15;;;14.88;;
19971;SDS011;10147;16.402;102.848;2024-03-02T07:55:44;21.13;;;14.88;;
19971;SDS011;10147;16.402;102.848;2024-03-02T07:58:19;24.15;;;16.20;;
19971;SDS011;10147;16.402;102.848;2024-03-02T08:00:50;24.25;;;15.52;;
19971;SDS011;10147;16.402;102.848;2024-03-02T08:03:24;18.48;;;16.48;;
19971;SDS011;10147;16.402;102.848;2024-03-02T08:05:55;22.05;;;16.58;;
19971;SDS011;10147;16.402;102.848;2024-03-02T08:08:24;18.67;;;15.40;;
19971;SDS011;10147;16.402;102.848;2024-03-02T08:10:55;26.20;;;22.48;;
19971;SDS011;10147;16.402;102.848;2024-03-02T08:13:28;30.67;;;20.50;;
19971;SDS011;10147;16.402;102.848;2024-03-02T08:15:57;21.00;;;15.18;;
19971;SDS011;10147;16.402;102.848;2024-03-02T08:18:28;18.52;;;14.68;;
19971;SDS011;10147;16.402;102.848;2024-03-02T08:20:58;17.58;;;14.77;;
19971;SDS011;10147;16.402;102.848;2024-03-02T08:23:28;17.73;;;15.30;;
19971;SDS011;10147;16.402;102.848;2024-03-02T08:25:59;22.60;;;15.77;;
19971;SDS011;10147;16.402;102.848;2024-03-02T08:28:29;19.33;;;15.77;;
19971;SDS011;10147;16.402;102.848;2024-03-02T08:30:59;21.25;;;17.88;;
19971;SDS011;10147;16.402;102.848;2024-03-02T08:33:29;21.50;;;19.45;;
19971;SDS011;10147;16.402;102.848;2024-03-02T08:36:02;23.67;;;18.38;;
19971;SDS011;10147;16.402;102.848;2024-03-02T08:38:33;19.52;;;16.67;;
19971;SDS011;10147;16.402;102.848;2024-03-02T08:41:03;19.33;;;17.40;;
19971;SDS011;10147;16.402;102.848;2024-03-02T08:43:35;20.67;;;18.65;;
19971;SDS011;10147;16.402;102.848;2024-03-02T08:46:05;20.98;;;18.63;;
19971;SDS011;10147;16.402;102.848;2024-03-02T08:48:35;19.65;;;15.75;;
19971;SDS011;10147;16.402;102.848;2024-03-02T08:51:05;21.98;;;18.05;;
19971;SDS011;10147;16.402;102.848;2024-03-02T08:53:36;21.33;;;16.70;;
19971;SDS011;10147;16.402;102.848;2024-03-02T08:56:07;17.52;;;15.63;;
19971;SDS011;10147;16.402;102.848;2024-03-02T08:58:39;23.42;;;17.23;;
19971;SDS011;10147;16.402;102.848;2024-03-02T09:01:09;21.55;;;15.43;;
19971;SDS011;10147;16.402;102.848;2024-03-02T09:03:41;18.27;;;14.98;;
19971;SDS011;10147;16.402;102.848;2024-03-02T09:06:13;18.92;;;14.80;;
19971;SDS011;10147;16.402;102.848;2024-03-02T09:08:45;21.20;;;17.00;;
19971;SDS011;10147;16.402;102.848;2024-03-02T09:11:17;22.95;;;18.98;;
19971;SDS011;10147;16.402;102.848;2024-03-02T09:13:48;28.80;;;18.52;;
19971;SDS011;10147;16.402;102.848;2024-03-02T09:16:19;36.35;;;18.40;;
19971;SDS011;10147;16.402;102.848;2024-03-02T09:18:49;24.92;;;17.95;;
19971;SDS011;10147;16.402;102.848;2024-03-02T09:21:19;22.15;;;18.20;;
19971;SDS011;10147;16.402;102.848;2024-03-02T09:23:50;28.80;;;17.88;;
19971;SDS011;10147;16.402;102.848;2024-03-02T09:26:20;24.13;;;18.27;;
19971;SDS011;10147;16.402;102.848;2024-03-02T09:28:50;32.17;;;18.38;;
19971;SDS011;10147;16.402;102.848;2024-03-02T09:31:20;23.27;;;16.92;;
19971;SDS011;10147;16.402;102.848;2024-03-02T09:33:51;28.73;;;16.00;;
19971;SDS011;10147;16.402;102.848;2024-03-02T09:36:22;22.90;;;16.20;;
19971;SDS011;10147;16.402;102.848;2024-03-02T09:38:53;25.83;;;18.85;;
19971;SDS011;10147;16.402;102.848;2024-03-02T09:41:30;25.85;;;19.48;;
19971;SDS011;10147;16.402;102.848;2024-03-02T09:44:05;29.88;;;21.02;;
19971;SDS011;10147;16.402;102.848;2024-03-02T09:46:35;22.92;;;17.35;;
19971;SDS011;10147;16.402;102.848;2024-03-02T09:49:05;17.90;;;16.05;;
19971;SDS011;10147;16.402;102.848;2024-03-02T09:51:36;25.98;;;16.63;;
19971;SDS011;10147;16.402;102.848;2024-03-02T09:54:07;19.17;;;17.10;;
19971;SDS011;10147;16.402;102.848;2024-03-02T09:56:49;28.55;;;17.88;;
19971;SDS011;10147;16.402;102.848;2024-03-02T09:59:21;21.75;;;17.73;;
19971;SDS011;10147;16.402;102.848;2024-03-02T10:01:59;26.27;;;19.08;;
19971;SDS011;10147;16.402;102.848;2024-03-02T10:04:31;36.70;;;28.45;;
19971;SDS011;10147;16.402;102.848;2024-03-02T10:09:51;24.63;;;18.02;;
19971;SDS011;10147;16.402;102.848;2024-03-02T10:12:22;23.42;;;18.05;;
19971;SDS011;10147;16.402;102.848;2024-03-02T10:14:55;22.70;;;16.27;;
19971;SDS011;10147;16.402;102.848;2024-03-02T10:17:39;26.77;;;15.48;;
19971;SDS011;10147;16.402;102.848;2024-03-02T10:23:20;17.63;;;15.63;;
19971;SDS011;10147;16.402;102.848;2024-03-02T10:25:50;21.45;;;16.48;;
19971;SDS011;10147;16.402;102.848;2024-03-02T10:28:25;22.08;;;16.10;;
19971;SDS011;10147;16.402;102.848;2024-03-02T10:30:57;19.73;;;16.20;;
19971;SDS011;10147;16.402;102.848;2024-03-02T10:33:27;21.73;;;17.00;;
19971;SDS011;10147;16.402;102.848;2024-03-02T10:36:01;28.67;;;18.13;;
19971;SDS011;10147;16.402;102.848;2024-03-02T10:38:35;24.92;;;17.77;;
19971;SDS011;10147;16.402;102.848;2024-03-02T10:41:07;24.02;;;18.77;;
19971;SDS011;10147;16.402;102.848;2024-03-02T10:43:37;24.77;;;19.23;;
19971;SDS011;10147;16.402;102.848;2024-03-02T10:46:07;27.17;;;18.50;;
19971;SDS011;10147;16.402;102.848;2024-03-02T10:48:39;21.70;;;19.10;;
19971;SDS011;10147;16.402;102.848;2024-03-02T10:51:15;26.00;;;18.92;;
19971;SDS011;10147;16.402;102.848;2024-03-02T10:53:51;29.73;;;20.05;;
19971;SDS011;10147;16.402;102.848;2024-03-02T10:56:22;22.88;;;20.25;;
19971;SDS011;10147;16.402;102.848;2024-03-02T11:02:10;43.33;;;38.67;;
19971;SDS011;10147;16.402;102.848;2024-03-02T11:04:43;42.80;;;38.28;;
19971;SDS011;10147;16.402;102.848;2024-03-02T11:07:16;29.67;;;20.98;;
19971;SDS011;10147;16.402;102.848;2024-03-02T11:10:08;29.60;;;19.83;;
19971;SDS011;10147;16.402;102.848;2024-03-02T11:12:39;30.33;;;22.30;;
19971;SDS011;10147;16.402;102.848;2024-03-02T11:15:22;40.10;;;30.40;;
19971;SDS011;10147;16.402;102.848;2024-03-02T11:17:56;26.73;;;21.17;;
19971;SDS011;10147;16.402;102.848;2024-03-02T11:20:27;34.42;;;22.05;;
19971;SDS011;10147;16.402;102.848;2024-03-02T11:23:03;35.38;;;23.35;;
19971;SDS011;10147;16.402;102.848;2024-03-02T11:25:36;33.63;;;24.02;;
19971;SDS011;10147;16.402;102.848;2024-03-02T11:28:08;34.58;;;26.15;;
19971;SDS011;10147;16.402;102.848;2024-03-02T11:30:48;45.63;;;24.13;;
19971;SDS011;10147;16.402;102.848;2024-03-02T11:33:23;34.35;;;21.95;;
19971;SDS011;10147;16.402;102.848;2024-03-02T11:35:54;31.52;;;22.20;;
19971;SDS011;10147;16.402;102.848;2024-03-02T11:38:27;45.13;;;35.38;;
19971;SDS011;10147;16.402;102.848;2024-03-02T11:41:02;46.72;;;36.28;;
19971;SDS011;10147;16.402;102.848;2024-03-02T11:43:40;38.67;;;34.70;;
19971;SDS011;10147;16.402;102.848;2024-03-02T11:46:13;39.20;;;31.88;;
19971;SDS011;10147;16.402;102.848;2024-03-02T11:48:45;41.70;;;31.98;;
19971;SDS011;10147;16.402;102.848;2024-03-02T11:51:16;35.75;;;22.90;;
19971;SDS011;10147;16.402;102.848;2024-03-02T11:53:46;34.70;;;24.23;;
19971;SDS011;10147;16.402;102.848;2024-03-02T11:56:17;35.75;;;26.70;;
19971;SDS011;10147;16.402;102.848;2024-03-02T11:58:48;42.55;;;26.83;;
19971;SDS011;10147;16.402;102.848;2024-03-02T12:01:23;46.90;;;26.98;;
19971;SDS011;10147;16.402;102.848;2024-03-02T12:03:55;40.88;;;26.08;;
19971;SDS011;10147;16.402;102.848;2024-03-02T12:06:25;47.17;;;39.05;;
19971;SDS011;10147;16.402;102.848;2024-03-02T12:08:58;33.58;;;25.83;;
19971;SDS011;10147;16.402;102.848;2024-03-02T12:11:28;31.75;;;25.13;;
19971;SDS011;10147;16.402;102.848;2024-03-02T12:13:58;32.55;;;24.55;;
19971;SDS011;10147;16.402;102.848;2024-03-02T12:16:28;39.75;;;26.02;;
19971;SDS011;10147;16.402;102.848;2024-03-02T12:19:01;32.47;;;24.77;;
19971;SDS011;10147;16.402;102.848;2024-03-02T12:21:31;36.65;;;26.88;;
19971;SDS011;10147;16.402;102.848;2024-03-02T12:24:04;33.70;;;26.35;;
19971;SDS011;10147;16.402;102.848;2024-03-02T12:26:35;30.42;;;25.83;;
19971;SDS011;10147;16.402;102.848;2024-03-02T12:29:05;38.50;;;26.60;;
19971;SDS011;10147;16.402;102.848;2024-03-02T12:31:35;39.50;;;27.55;;
19971;SDS011;10147;16.402;102.848;2024-03-02T12:34:06;102.57;;;80.03;;
19971;SDS011;10147;16.402;102.848;2024-03-02T12:36:37;40.03;;;32.72;;
19971;SDS011;10147;16.402;102.848;2024-03-02T12:39:08;45.75;;;34.45;;
19971;SDS011;10147;16.402;102.848;2024-03-02T12:41:38;43.60;;;31.45;;
19971;SDS011;10147;16.402;102.848;2024-03-02T12:44:11;51.53;;;31.83;;
19971;SDS011;10147;16.402;102.848;2024-03-02T12:46:41;46.10;;;32.30;;
19971;SDS011;10147;16.402;102.848;2024-03-02T12:49:11;50.55;;;35.53;;
19971;SDS011;10147;16.402;102.848;2024-03-02T12:51:43;63.45;;;44.65;;
19971;SDS011;10147;16.402;102.848;2024-03-02T12:54:16;67.15;;;44.63;;
19971;SDS011;10147;16.402;102.848;2024-03-02T12:56:46;55.05;;;40.78;;
19971;SDS011;10147;16.402;102.848;2024-03-02T12:59:20;51.05;;;35.85;;
19971;SDS011;10147;16.402;102.848;2024-03-02T13:01:54;51.53;;;33.60;;
19971;SDS011;10147;16.402;102.848;2024-03-02T13:04:29;45.33;;;32.08;;
19971;SDS011;10147;16.402;102.848;2024-03-02T13:07:00;41.08;;;30.40;;
19971;SDS011;10147;16.402;102.848;2024-03-02T13:09:31;37.95;;;26.60;;
19971;SDS011;10147;16.402;102.848;2024-03-02T13:12:02;40.10;;;29.77;;
19971;SDS011;10147;16.402;102.848;2024-03-02T13:14:33;37.83;;;29.58;;
19971;SDS011;10147;16.402;102.848;2024-03-02T13:17:04;45.65;;;31.23;;
19971;SDS011;10147;16.402;102.848;2024-03-02T13:19:37;39.65;;;31.38;;
19971;SDS011;10147;16.402;102.848;2024-03-02T13:22:07;42.92;;;32.38;;
19971;SDS011;10147;16.402;102.848;2024-03-02T13:24:40;43.92;;;32.17;;
19971;SDS011;10147;16.402;102.848;2024-03-02T13:27:12;39.25;;;31.10;;
19971;SDS011;10147;16.402;102.848;2024-03-02T13:29:44;41.72;;;31.05;;
19971;SDS011;10147;16.402;102.848;2024-03-02T13:32:17;37.38;;;31.98;;
19971;SDS011;10147;16.402;102.848;2024-03-02T13:34:52;40.80;;;33.47;;
19971;SDS011;10147;16.402;102.848;2024-03-02T13:37:23;42.47;;;33.45;;
19971;SDS011;10147;16.402;102.848;2024-03-02T13:39:56;53.33;;;42.60;;
19971;SDS011;10147;16.402;102.848;2024-03-02T13:42:26;49.05;;;34.47;;
19971;SDS011;10147;16.402;102.848;2024-03-02T13:44:58;51.15;;;34.90;;
19971;SDS011;10147;16.402;102.848;2024-03-02T13:47:28;44.10;;;34.92;;
19971;SDS011;10147;16.402;102.848;2024-03-02T13:49:59;49.17;;;33.88;;
19971;SDS011;10147;16.402;102.848;2024-03-02T13:52:31;46.38;;;35.20;;
19971;SDS011;10147;16.402;102.848;2024-03-02T13:55:01;43.22;;;35.78;;
19971;SDS011;10147;16.402;102.848;2024-03-02T13:57:32;43.28;;;34.17;;
19971;SDS011;10147;16.402;102.848;2024-03-02T14:00:06;44.25;;;33.47;;
19971;SDS011;10147;16.402;102.848;2024-03-02T14:02:39;42.22;;;32.00;;
19971;SDS011;10147;16.402;102.848;2024-03-02T14:05:10;50.70;;;33.38;;
19971;SDS011;10147;16.402;102.848;2024-03-02T14:07:42;42.53;;;37.88;;
19971;SDS011;10147;16.402;102.848;2024-03-02T14:10:16;58.85;;;52.53;;
19971;SDS011;10147;16.402;102.848;2024-03-02T14:12:51;59.33;;;53.40;;
19971;SDS011;10147;16.402;102.848;2024-03-02T14:15:22;44.78;;;32.42;;
19971;SDS011;10147;16.402;102.848;2024-03-02T14:17:53;44.00;;;36.33;;
19971;SDS011;10147;16.402;102.848;2024-03-02T14:20:23;38.03;;;31.55;;
19971;SDS011;10147;16.402;102.848;2024-03-02T14:22:53;41.88;;;33.70;;
19971;SDS011;10147;16.402;102.848;2024-03-02T14:25:23;43.95;;;31.80;;
19971;SDS011;10147;16.402;102.848;2024-03-02T14:27:53;41.83;;;32.42;;
19971;SDS011;10147;16.402;102.848;2024-03-02T14:30:46;38.33;;;30.33;;
19971;SDS011;10147;16.402;102.848;2024-03-02T14:33:17;37.92;;;32.28;;
19971;SDS011;10147;16.402;102.848;2024-03-02T14:35:47;37.42;;;30.27;;
19971;SDS011;10147;16.402;102.848;2024-03-02T14:38:18;41.20;;;29.88;;
19971;SDS011;10147;16.402;102.848;2024-03-02T14:40:48;34.85;;;31.05;;
19971;SDS011;10147;16.402;102.848;2024-03-02T14:43:22;39.35;;;32.53;;
19971;SDS011;10147;16.402;102.848;2024-03-02T14:45:52;38.80;;;30.13;;
19971;SDS011;10147;16.402;102.848;2024-03-02T14:48:23;37.08;;;30.10;;
19971;SDS011;10147;16.402;102.848;2024-03-02T14:50:56;39.15;;;31.63;;
19971;SDS011;10147;16.402;102.848;2024-03-02T14:53:27;45.70;;;31.88;;
19971;SDS011;10147;16.402;102.848;2024-03-02T14:55:57;44.95;;;32.80;;
19971;SDS011;10147;16.402;102.848;2024-03-02T14:58:27;38.20;;;30.88;;
19971;SDS011;10147;16.402;102.848;2024-03-02T15:00:57;41.55;;;33.92;;
19971;SDS011;10147;16.402;102.848;2024-03-02T15:03:27;39.13;;;33.30;;
19971;SDS011;10147;16.402;102.848;2024-03-02T15:05:59;46.08;;;36.17;;